Weather History for PAFE - January, 2013

Change the Weather History Date:

Friday, January 25, 2013

  Actual Average (WUND) Record (WUND)
Temperature  
Mean Temperature 40 °F -  
Max Temperature 42 °F - - (-1)
Min Temperature 39 °F - - (-1)
Degree Days  
Heating Degree Days 24    
Moisture  
Dew Point 35 °F    
Average Humidity 83    
Maximum Humidity 87    
Minimum Humidity 66    
Precipitation  
Precipitation 0.21 in - - ()
Sea Level Pressure  
Sea Level Pressure 29.47 in    
Wind  
Wind Speed 12 mph (ESE)    
Max Wind Speed 18 mph    
Max Gust Speed 31 mph    
Visibility 10 miles    
Events      
Averages and records for this station are not official NWS values.
T = Trace of Precipitation, MM = Missing Value Source: NWS Daily Summary

Daily Weather History Graph

Daily Weather History Graph

Search for Another Location

Airport or City:

Trip Planner

Search our weather history database for the weather conditions in past years. The results will help you decide how hot, cold, wet, or windy it might be!

Date:

Astronomy

Jan. 25, 2013 Rise Set
Actual Time 8:06 AM AKST 4:10 PM AKST
Civil Twilight 7:22 AM AKST 4:53 PM AKST
Nautical Twilight 6:35 AM AKST 5:41 PM AKST
Astronomical Twilight 5:50 AM AKST 6:26 PM AKST
Moon 3:15 PM AKST (1/25) 6:52 AM AKST (1/25)
Length of Visible Light 9h 31m
Length of Day
8h 03m
Waxing Gibbous, 98% of the Moon is Illuminated
Jan 25
Waxing Gibbous
Jan 26
Full
Feb 3
Last Quarter
Feb 9
New
Feb 17
First Quarter

Hourly Weather History & Observations

Time (AKST) Temp. Windchill Dew Point Humidity Pressure Visibility Wind Dir Wind Speed Gust Speed Precip Events Conditions
12:16 AM 42.8 °F 36.6 °F 32.0 °F 66% 29.32 in 10.0 mi ESE 11.5 mph 18.4 mph N/A   Overcast
12:36 AM 41.0 °F 34.7 °F 32.0 °F 70% 29.32 in 10.0 mi ESE 10.4 mph 24.2 mph N/A   Overcast
12:56 AM 41.0 °F 33.9 °F 33.8 °F 76% 29.32 in 10.0 mi ESE 12.7 mph 23.0 mph N/A   Overcast
1:16 AM 41.0 °F 34.7 °F 33.8 °F 76% 29.32 in 10.0 mi East 10.4 mph 23.0 mph N/A   Overcast
1:36 AM 39.2 °F 31.6 °F 33.8 °F 81% 29.32 in 10.0 mi East 12.7 mph - N/A   Overcast
1:56 AM 39.2 °F 32.5 °F 33.8 °F 81% 29.33 in 10.0 mi East 10.4 mph 20.7 mph 0.01 in   Overcast
2:16 AM 39.2 °F 31.6 °F 33.8 °F 81% 29.33 in 10.0 mi ESE 12.7 mph 23.0 mph 0.01 in   Overcast
2:56 AM 39.2 °F 29.8 °F 33.8 °F 81% 29.34 in 10.0 mi ESE 18.4 mph 24.2 mph 0.03 in   Overcast
3:36 AM 39.2 °F 30.8 °F 35.6 °F 87% 29.36 in 10.0 mi ESE 15.0 mph 25.3 mph 0.02 in   Overcast
3:56 AM 39.2 °F 31.6 °F 35.6 °F 87% 29.36 in 10.0 mi ESE 12.7 mph 24.2 mph 0.02 in   Overcast
4:16 AM 39.2 °F 30.2 °F 35.6 °F 87% 29.37 in 10.0 mi ESE 17.3 mph 27.6 mph 0.01 in   Overcast
4:36 AM 41.0 °F 32.8 °F 35.6 °F 81% 29.38 in 10.0 mi ESE 16.1 mph 27.6 mph 0.01 in   Overcast
4:56 AM 41.0 °F 33.5 °F 35.6 °F 81% 29.39 in 9.0 mi ESE 13.8 mph 27.6 mph 0.02 in   Overcast
5:16 AM 41.0 °F 32.2 °F 35.6 °F 81% 29.39 in 10.0 mi ESE 18.4 mph 31.1 mph 0.01 in   Overcast
5:36 AM 41.0 °F 33.5 °F 35.6 °F 81% 29.40 in 10.0 mi ESE 13.8 mph 20.7 mph 0.01 in   Overcast
5:56 AM 41.0 °F 32.5 °F 35.6 °F 81% 29.40 in 10.0 mi ESE 17.3 mph 25.3 mph 0.01 in   Mostly Cloudy
6:16 AM 41.0 °F 34.3 °F 35.6 °F 81% 29.41 in 10.0 mi ESE 11.5 mph 23.0 mph N/A   Mostly Cloudy
6:36 AM 41.0 °F 32.8 °F 35.6 °F 81% 29.41 in 10.0 mi ESE 16.1 mph 20.7 mph N/A   Mostly Cloudy
6:56 AM 41.0 °F 33.9 °F 35.6 °F 81% 29.41 in 10.0 mi ESE 12.7 mph - N/A   Overcast
7:16 AM 39.2 °F 34.2 °F 35.6 °F 87% 29.41 in 10.0 mi SE 6.9 mph - N/A   Overcast
7:36 AM 39.2 °F 35.9 °F 35.6 °F 87% 29.42 in 8.0 mi ESE 4.6 mph - N/A   Overcast
7:56 AM 39.2 °F 33.6 °F 35.6 °F 87% 29.42 in 10.0 mi ESE 8.1 mph - N/A   Overcast
8:16 AM 39.2 °F 31.6 °F 35.6 °F 87% 29.43 in 10.0 mi ESE 12.7 mph 20.7 mph N/A   Overcast
8:36 AM 41.0 °F 35.8 °F 35.6 °F 81% 29.43 in 10.0 mi ESE 8.1 mph 19.6 mph N/A   Overcast
8:56 AM 39.2 °F 31.2 °F 35.6 °F 87% 29.44 in 10.0 mi ESE 13.8 mph 20.7 mph N/A   Mostly Cloudy
9:16 AM 39.2 °F 32.0 °F 35.6 °F 87% 29.44 in 10.0 mi ESE 11.5 mph 18.4 mph N/A   Mostly Cloudy
9:36 AM 41.0 °F 34.3 °F 35.6 °F 81% 29.45 in 10.0 mi ESE 11.5 mph 18.4 mph N/A   Overcast
10:16 AM 41.0 °F 33.9 °F 35.6 °F 81% 29.46 in 10.0 mi SE 12.7 mph 23.0 mph N/A   Overcast
10:36 AM 41.0 °F 34.3 °F 35.6 °F 81% 29.46 in 10.0 mi SE 11.5 mph - N/A   Overcast
10:56 AM 41.0 °F 34.3 °F 37.4 °F 87% 29.47 in 10.0 mi ESE 11.5 mph 16.1 mph N/A   Overcast
11:16 AM 42.8 °F 36.2 °F 37.4 °F 81% 29.46 in 10.0 mi SE 12.7 mph 16.1 mph N/A   Mostly Cloudy
11:36 AM 42.8 °F 37.5 °F 37.4 °F 81% 29.46 in 10.0 mi ESE 9.2 mph 18.4 mph N/A   Mostly Cloudy
11:56 AM 42.8 °F 37.5 °F 37.4 °F 81% 29.46 in 10.0 mi ESE 9.2 mph - N/A   Overcast
12:16 PM 42.8 °F 38.0 °F 37.4 °F 81% 29.46 in 10.0 mi ESE 8.1 mph - N/A   Overcast
12:36 PM 42.8 °F 37.5 °F 37.4 °F 81% 29.46 in 10.0 mi ESE 9.2 mph 20.7 mph N/A   Overcast
12:56 PM 41.0 °F 35.8 °F 35.6 °F 81% 29.47 in 9.0 mi South 8.1 mph - 0.02 in   Overcast
1:16 PM 39.2 °F 33.6 °F 35.6 °F 87% 29.48 in 8.0 mi SSE 8.1 mph - 0.08 in   Overcast
1:36 PM 39.2 °F 35.0 °F 35.6 °F 87% 29.47 in 10.0 mi SE 5.8 mph - 0.09 in   Overcast
1:56 PM 41.0 °F 34.7 °F 37.4 °F 87% 29.47 in 10.0 mi SE 10.4 mph - 0.09 in   Overcast
2:16 PM 41.0 °F 33.9 °F 37.4 °F 87% 29.47 in 10.0 mi ESE 12.7 mph 18.4 mph 0.01 in   Overcast
2:36 PM 41.0 °F 33.9 °F 37.4 °F 87% 29.48 in 10.0 mi ESE 12.7 mph 18.4 mph 0.01 in   Overcast
2:56 PM 41.0 °F 34.3 °F 35.6 °F 81% 29.49 in 10.0 mi SE 11.5 mph 19.6 mph 0.01 in   Overcast
3:16 PM 41.0 °F 33.9 °F 35.6 °F 81% 29.49 in 10.0 mi ESE 12.7 mph 19.6 mph N/A   Overcast
3:36 PM 41.0 °F 34.7 °F 35.6 °F 81% 29.50 in 10.0 mi ESE 10.4 mph 21.9 mph N/A   Overcast
3:56 PM 39.2 °F 32.5 °F 35.6 °F 87% 29.51 in 10.0 mi ESE 10.4 mph 18.4 mph N/A   Overcast
4:16 PM 39.2 °F 32.5 °F 35.6 °F 87% 29.51 in 10.0 mi ESE 10.4 mph 20.7 mph N/A   Overcast
4:36 PM 39.2 °F 32.0 °F 35.6 °F 87% 29.52 in 10.0 mi ESE 11.5 mph 16.1 mph N/A   Overcast
4:56 PM 39.2 °F 33.0 °F 35.6 °F 87% 29.52 in 10.0 mi ESE 9.2 mph - N/A   Overcast
5:16 PM 39.2 °F 31.6 °F 35.6 °F 87% 29.52 in 10.0 mi SE 12.7 mph 17.3 mph N/A   Overcast
5:36 PM 39.2 °F 33.6 °F 33.8 °F 81% 29.53 in 10.0 mi ESE 8.1 mph - N/A   Mostly Cloudy
5:56 PM 39.2 °F 33.6 °F 35.6 °F 87% 29.53 in 10.0 mi ESE 8.1 mph - N/A   Overcast
6:16 PM 39.2 °F 33.0 °F 35.6 °F 87% 29.53 in 10.0 mi ESE 9.2 mph 16.1 mph N/A   Overcast
6:36 PM 39.2 °F 32.5 °F 35.6 °F 87% 29.54 in 10.0 mi ESE 10.4 mph 16.1 mph N/A   Overcast
6:56 PM 39.2 °F 33.6 °F 35.6 °F 87% 29.55 in 10.0 mi ESE 8.1 mph - N/A   Overcast
7:16 PM 39.2 °F 33.6 °F 35.6 °F 87% 29.56 in 10.0 mi ESE 8.1 mph - N/A   Overcast
7:36 PM 39.2 °F 33.6 °F 35.6 °F 87% 29.56 in 10.0 mi ESE 8.1 mph - N/A   Overcast
7:56 PM 39.2 °F 33.6 °F 35.6 °F 87% 29.57 in 10.0 mi ESE 8.1 mph - N/A   Overcast
8:16 PM 39.2 °F 32.5 °F 35.6 °F 87% 29.57 in 10.0 mi ESE 10.4 mph - N/A   Overcast
8:36 PM 39.2 °F 32.0 °F 35.6 °F 87% 29.57 in 10.0 mi SE 11.5 mph 18.4 mph N/A   Overcast
8:56 PM 39.2 °F 33.6 °F 35.6 °F 87% 29.58 in 10.0 mi SE 8.1 mph - N/A   Mostly Cloudy
9:16 PM 39.2 °F 34.2 °F 33.8 °F 81% 29.58 in 10.0 mi SE 6.9 mph - N/A   Overcast
9:36 PM 39.2 °F 32.5 °F 35.6 °F 87% 29.59 in 10.0 mi SE 10.4 mph - N/A   Overcast
9:56 PM 39.2 °F 32.0 °F 33.8 °F 81% 29.60 in 10.0 mi SE 11.5 mph - N/A   Overcast
10:16 PM 39.2 °F 32.0 °F 33.8 °F 81% 29.60 in 10.0 mi ESE 11.5 mph - N/A   Overcast
10:36 PM 39.2 °F 33.0 °F 33.8 °F 81% 29.61 in 10.0 mi ESE 9.2 mph 16.1 mph N/A   Overcast
10:56 PM 39.2 °F 32.5 °F 33.8 °F 81% 29.61 in 10.0 mi ESE 10.4 mph 16.1 mph N/A   Overcast
11:16 PM 39.2 °F 33.6 °F 33.8 °F 81% 29.62 in 10.0 mi SE 8.1 mph - N/A   Overcast
11:36 PM 39.2 °F 32.5 °F 33.8 °F 81% 29.62 in 10.0 mi ESE 10.4 mph 16.1 mph N/A   Mostly Cloudy
11:56 PM 39.2 °F 32.0 °F 33.8 °F 81% 29.62 in 10.0 mi SE 11.5 mph - N/A   Overcast